sensor_id;sensor_type;location;lat;lon;timestamp;pressure;altitude;pressure_sealevel;temperature;humidity
79366;BME280;68833;53.160;17.920;2023-08-31T00:00:10;99860.75;;;15.29;80.29
79366;BME280;68833;53.160;17.920;2023-08-31T00:02:58;99861.81;;;15.29;80.47
79366;BME280;68833;53.160;17.920;2023-08-31T00:05:25;99860.79;;;15.28;80.29
79366;BME280;68833;53.160;17.920;2023-08-31T00:07:54;99858.48;;;15.28;80.34
79366;BME280;68833;53.160;17.920;2023-08-31T00:10:21;99856.23;;;15.27;80.30
79366;BME280;68833;53.160;17.920;2023-08-31T00:12:47;99855.56;;;15.26;80.28
79366;BME280;68833;53.160;17.920;2023-08-31T00:15:15;99855.70;;;15.27;80.32
79366;BME280;68833;53.160;17.920;2023-08-31T00:17:41;99860.64;;;15.27;80.34
79366;BME280;68833;53.160;17.920;2023-08-31T00:20:09;99861.48;;;15.24;80.44
79366;BME280;68833;53.160;17.920;2023-08-31T00:22:38;99861.71;;;15.23;80.69
79366;BME280;68833;53.160;17.920;2023-08-31T00:25:07;99865.73;;;15.24;80.46
79366;BME280;68833;53.160;17.920;2023-08-31T00:27:35;99867.34;;;15.24;80.28
79366;BME280;68833;53.160;17.920;2023-08-31T00:30:07;99870.45;;;15.21;80.46
79366;BME280;68833;53.160;17.920;2023-08-31T00:32:38;99869.60;;;15.16;80.39
79366;BME280;68833;53.160;17.920;2023-08-31T00:35:05;99870.26;;;15.13;80.66
79366;BME280;68833;53.160;17.920;2023-08-31T00:37:31;99871.62;;;15.10;80.42
79366;BME280;68833;53.160;17.920;2023-08-31T00:39:58;99873.84;;;15.07;80.49
79366;BME280;68833;53.160;17.920;2023-08-31T00:42:25;99877.29;;;15.06;80.63
79366;BME280;68833;53.160;17.920;2023-08-31T00:44:52;99876.83;;;15.04;80.69
79366;BME280;68833;53.160;17.920;2023-08-31T00:47:20;99876.69;;;15.03;80.78
79366;BME280;68833;53.160;17.920;2023-08-31T00:49:47;99873.75;;;15.01;80.81
79366;BME280;68833;53.160;17.920;2023-08-31T00:52:14;99876.24;;;15.00;80.64
79366;BME280;68833;53.160;17.920;2023-08-31T00:54:40;99871.08;;;15.01;80.85
79366;BME280;68833;53.160;17.920;2023-08-31T00:57:08;99874.58;;;15.03;80.73
79366;BME280;68833;53.160;17.920;2023-08-31T00:59:35;99872.95;;;15.04;80.72
79366;BME280;68833;53.160;17.920;2023-08-31T01:02:03;99877.23;;;15.03;80.93
79366;BME280;68833;53.160;17.920;2023-08-31T01:05:08;99875.16;;;15.01;80.91
79366;BME280;68833;53.160;17.920;2023-08-31T01:10:32;99879.30;;;14.99;80.86
79366;BME280;68833;53.160;17.920;2023-08-31T01:13:11;99871.09;;;14.96;80.86
79366;BME280;68833;53.160;17.920;2023-08-31T01:15:41;99870.84;;;14.94;80.98
79366;BME280;68833;53.160;17.920;2023-08-31T01:18:11;99864.38;;;14.92;81.08
79366;BME280;68833;53.160;17.920;2023-08-31T01:20:42;99859.90;;;14.89;80.89
79366;BME280;68833;53.160;17.920;2023-08-31T01:23:15;99861.14;;;14.89;81.13
79366;BME280;68833;53.160;17.920;2023-08-31T01:25:42;99860.14;;;14.88;80.83
79366;BME280;68833;53.160;17.920;2023-08-31T01:28:10;99862.37;;;14.90;80.93
79366;BME280;68833;53.160;17.920;2023-08-31T01:30:37;99862.73;;;14.89;80.98
79366;BME280;68833;53.160;17.920;2023-08-31T01:33:04;99862.77;;;14.88;81.01
79366;BME280;68833;53.160;17.920;2023-08-31T01:35:38;99859.40;;;14.89;81.05
79366;BME280;68833;53.160;17.920;2023-08-31T01:38:08;99856.08;;;14.88;80.84
79366;BME280;68833;53.160;17.920;2023-08-31T02:03:05;99846.94;;;14.86;80.88
79366;BME280;68833;53.160;17.920;2023-08-31T02:05:34;99851.16;;;14.87;80.74
79366;BME280;68833;53.160;17.920;2023-08-31T02:08:00;99853.69;;;14.85;80.81
79366;BME280;68833;53.160;17.920;2023-08-31T02:10:27;99851.86;;;14.87;80.67
79366;BME280;68833;53.160;17.920;2023-08-31T02:12:55;99849.48;;;14.89;80.80
79366;BME280;68833;53.160;17.920;2023-08-31T02:15:21;99850.77;;;14.92;80.64
79366;BME280;68833;53.160;17.920;2023-08-31T02:17:48;99853.52;;;14.94;80.62
79366;BME280;68833;53.160;17.920;2023-08-31T02:20:15;99855.27;;;14.95;80.60
79366;BME280;68833;53.160;17.920;2023-08-31T02:22:41;99863.21;;;14.95;80.66
79366;BME280;68833;53.160;17.920;2023-08-31T02:25:08;99861.81;;;14.95;80.55
79366;BME280;68833;53.160;17.920;2023-08-31T02:27:34;99859.34;;;14.94;80.55
79366;BME280;68833;53.160;17.920;2023-08-31T02:30:00;99853.89;;;14.93;80.52
79366;BME280;68833;53.160;17.920;2023-08-31T02:32:29;99856.60;;;14.92;80.39
79366;BME280;68833;53.160;17.920;2023-08-31T02:34:55;99859.69;;;14.90;80.39
79366;BME280;68833;53.160;17.920;2023-08-31T02:37:21;99858.16;;;14.88;80.34
79366;BME280;68833;53.160;17.920;2023-08-31T02:39:47;99858.73;;;14.87;80.45
79366;BME280;68833;53.160;17.920;2023-08-31T02:42:14;99860.16;;;14.87;80.41
79366;BME280;68833;53.160;17.920;2023-08-31T02:44:40;99857.02;;;14.86;80.33
79366;BME280;68833;53.160;17.920;2023-08-31T02:47:07;99855.87;;;14.84;80.53
79366;BME280;68833;53.160;17.920;2023-08-31T02:49:33;99858.70;;;14.84;80.64
79366;BME280;68833;53.160;17.920;2023-08-31T02:52:00;99860.96;;;14.85;80.34
79366;BME280;68833;53.160;17.920;2023-08-31T02:54:26;99862.03;;;14.85;80.22
79366;BME280;68833;53.160;17.920;2023-08-31T02:56:52;99861.02;;;14.83;80.02
79366;BME280;68833;53.160;17.920;2023-08-31T02:59:18;99861.27;;;14.81;80.13
79366;BME280;68833;53.160;17.920;2023-08-31T03:01:45;99868.39;;;14.80;80.09
79366;BME280;68833;53.160;17.920;2023-08-31T03:04:13;99871.22;;;14.80;80.12
79366;BME280;68833;53.160;17.920;2023-08-31T03:06:39;99873.89;;;14.80;80.12
79366;BME280;68833;53.160;17.920;2023-08-31T03:09:05;99876.50;;;14.81;80.07
79366;BME280;68833;53.160;17.920;2023-08-31T03:11:31;99871.56;;;14.80;79.90
79366;BME280;68833;53.160;17.920;2023-08-31T03:13:58;99869.30;;;14.79;80.01
79366;BME280;68833;53.160;17.920;2023-08-31T03:16:24;99874.16;;;14.77;79.96
79366;BME280;68833;53.160;17.920;2023-08-31T03:18:50;99870.70;;;14.75;80.08
79366;BME280;68833;53.160;17.920;2023-08-31T03:21:17;99869.17;;;14.74;79.88
79366;BME280;68833;53.160;17.920;2023-08-31T03:23:44;99871.71;;;14.72;79.92
79366;BME280;68833;53.160;17.920;2023-08-31T03:26:12;99872.80;;;14.71;79.97
79366;BME280;68833;53.160;17.920;2023-08-31T03:28:38;99874.83;;;14.69;79.79
79366;BME280;68833;53.160;17.920;2023-08-31T03:31:07;99875.95;;;14.68;80.00
79366;BME280;68833;53.160;17.920;2023-08-31T03:33:34;99877.02;;;14.68;79.97
79366;BME280;68833;53.160;17.920;2023-08-31T03:36:01;99875.05;;;14.67;80.28
79366;BME280;68833;53.160;17.920;2023-08-31T03:38:33;99874.17;;;14.68;79.96
79366;BME280;68833;53.160;17.920;2023-08-31T03:41:03;99875.56;;;14.69;80.25
79366;BME280;68833;53.160;17.920;2023-08-31T03:43:30;99873.24;;;14.69;80.44
79366;BME280;68833;53.160;17.920;2023-08-31T03:45:56;99876.58;;;14.70;80.32
79366;BME280;68833;53.160;17.920;2023-08-31T03:48:24;99878.14;;;14.70;80.30
79366;BME280;68833;53.160;17.920;2023-08-31T03:50:51;99880.98;;;14.70;80.21
79366;BME280;68833;53.160;17.920;2023-08-31T03:53:17;99881.70;;;14.71;80.10
79366;BME280;68833;53.160;17.920;2023-08-31T03:55:44;99881.16;;;14.70;80.23
79366;BME280;68833;53.160;17.920;2023-08-31T03:58:10;99881.67;;;14.70;80.26
79366;BME280;68833;53.160;17.920;2023-08-31T04:00:37;99876.40;;;14.70;80.23
79366;BME280;68833;53.160;17.920;2023-08-31T04:03:05;99876.91;;;14.71;80.07
79366;BME280;68833;53.160;17.920;2023-08-31T04:05:32;99878.16;;;14.70;80.22
79366;BME280;68833;53.160;17.920;2023-08-31T04:08:00;99877.65;;;14.70;80.32
79366;BME280;68833;53.160;17.920;2023-08-31T04:10:27;99876.95;;;14.70;80.18
79366;BME280;68833;53.160;17.920;2023-08-31T04:12:53;99876.70;;;14.71;80.15
79366;BME280;68833;53.160;17.920;2023-08-31T04:15:20;99870.73;;;14.74;80.02
79366;BME280;68833;53.160;17.920;2023-08-31T04:17:46;99865.34;;;14.77;80.06
79366;BME280;68833;53.160;17.920;2023-08-31T04:20:13;99869.65;;;14.80;79.96
79366;BME280;68833;53.160;17.920;2023-08-31T04:22:39;99873.11;;;14.81;79.77
79366;BME280;68833;53.160;17.920;2023-08-31T04:25:06;99871.64;;;14.83;79.85
79366;BME280;68833;53.160;17.920;2023-08-31T04:27:32;99871.36;;;14.85;80.10
79366;BME280;68833;53.160;17.920;2023-08-31T04:30:00;99876.23;;;14.88;79.96
79366;BME280;68833;53.160;17.920;2023-08-31T04:32:26;99877.80;;;14.89;79.79
79366;BME280;68833;53.160;17.920;2023-08-31T04:34:53;99882.60;;;14.87;79.83
79366;BME280;68833;53.160;17.920;2023-08-31T04:37:21;99883.67;;;14.87;79.86
79366;BME280;68833;53.160;17.920;2023-08-31T04:39:48;99880.88;;;14.86;79.74
79366;BME280;68833;53.160;17.920;2023-08-31T04:42:14;99877.86;;;14.87;79.75
79366;BME280;68833;53.160;17.920;2023-08-31T04:44:42;99877.63;;;14.88;79.78
79366;BME280;68833;53.160;17.920;2023-08-31T04:47:09;99876.48;;;14.90;79.44
79366;BME280;68833;53.160;17.920;2023-08-31T04:49:35;99878.70;;;14.92;79.62
79366;BME280;68833;53.160;17.920;2023-08-31T04:52:01;99874.05;;;14.94;79.58
79366;BME280;68833;53.160;17.920;2023-08-31T04:54:28;99877.39;;;14.94;79.55
79366;BME280;68833;53.160;17.920;2023-08-31T04:56:54;99878.60;;;14.95;79.55
79366;BME280;68833;53.160;17.920;2023-08-31T04:59:20;99883.34;;;14.95;79.58
79366;BME280;68833;53.160;17.920;2023-08-31T05:01:46;99889.90;;;14.95;79.54
79366;BME280;68833;53.160;17.920;2023-08-31T05:04:13;99889.05;;;14.95;79.46
79366;BME280;68833;53.160;17.920;2023-08-31T05:06:39;99898.05;;;14.95;79.56
79366;BME280;68833;53.160;17.920;2023-08-31T05:09:05;99901.41;;;14.94;79.52
79366;BME280;68833;53.160;17.920;2023-08-31T05:11:32;99900.51;;;14.95;79.65
79366;BME280;68833;53.160;17.920;2023-08-31T05:13:58;99902.17;;;14.97;79.59
79366;BME280;68833;53.160;17.920;2023-08-31T05:16:24;99901.38;;;15.00;79.61
79366;BME280;68833;53.160;17.920;2023-08-31T05:18:50;99898.90;;;15.00;79.48
79366;BME280;68833;53.160;17.920;2023-08-31T05:21:17;99896.89;;;15.01;79.43
79366;BME280;68833;53.160;17.920;2023-08-31T05:23:43;99896.60;;;15.05;79.49
79366;BME280;68833;53.160;17.920;2023-08-31T05:26:10;99894.21;;;15.07;79.29
79366;BME280;68833;53.160;17.920;2023-08-31T17:30:04;100239.05;;;15.72;72.87
79366;BME280;68833;53.160;17.920;2023-08-31T17:32:34;100226.63;;;15.68;73.14
79366;BME280;68833;53.160;17.920;2023-08-31T17:35:22;100221.92;;;15.66;73.05
79366;BME280;68833;53.160;17.920;2023-08-31T17:37:57;100215.07;;;15.65;73.14
79366;BME280;68833;53.160;17.920;2023-08-31T17:40:51;100218.44;;;15.64;73.12
79366;BME280;68833;53.160;17.920;2023-08-31T17:43:23;100228.27;;;15.63;73.09
79366;BME280;68833;53.160;17.920;2023-08-31T17:46:26;100222.81;;;15.61;73.22
79366;BME280;68833;53.160;17.920;2023-08-31T17:49:17;100224.13;;;15.59;73.28
79366;BME280;68833;53.160;17.920;2023-08-31T17:51:53;100228.52;;;15.56;73.26
79366;BME280;68833;53.160;17.920;2023-08-31T17:54:48;100230.59;;;15.52;73.26
79366;BME280;68833;53.160;17.920;2023-08-31T17:57:21;100233.91;;;15.48;73.05
79366;BME280;68833;53.160;17.920;2023-08-31T18:00:17;100242.70;;;15.45;73.35
79366;BME280;68833;53.160;17.920;2023-08-31T18:02:56;100241.86;;;15.39;73.28
79366;BME280;68833;53.160;17.920;2023-08-31T18:05:31;100246.73;;;15.37;73.44
79366;BME280;68833;53.160;17.920;2023-08-31T18:08:27;100256.02;;;15.34;73.46
79366;BME280;68833;53.160;17.920;2023-08-31T18:10:59;100259.14;;;15.31;73.47
79366;BME280;68833;53.160;17.920;2023-08-31T18:13:40;100262.02;;;15.29;73.46
79366;BME280;68833;53.160;17.920;2023-08-31T18:16:21;100260.82;;;15.28;73.79
79366;BME280;68833;53.160;17.920;2023-08-31T18:19:31;100265.66;;;15.26;73.72
79366;BME280;68833;53.160;17.920;2023-08-31T18:22:50;100261.95;;;15.26;73.93
79366;BME280;68833;53.160;17.920;2023-08-31T18:25:30;100261.83;;;15.25;73.89
79366;BME280;68833;53.160;17.920;2023-08-31T18:28:05;100261.69;;;15.24;73.83
79366;BME280;68833;53.160;17.920;2023-08-31T18:30:33;100262.94;;;15.23;73.96
79366;BME280;68833;53.160;17.920;2023-08-31T18:33:14;100266.11;;;15.23;73.87
79366;BME280;68833;53.160;17.920;2023-08-31T18:36:25;100268.23;;;15.24;74.13
79366;BME280;68833;53.160;17.920;2023-08-31T18:38:59;100268.30;;;15.22;74.09
79366;BME280;68833;53.160;17.920;2023-08-31T18:42:17;100267.66;;;15.20;74.05
79366;BME280;68833;53.160;17.920;2023-08-31T18:45:03;100262.88;;;15.21;74.07
79366;BME280;68833;53.160;17.920;2023-08-31T18:47:56;100263.03;;;15.21;74.02
79366;BME280;68833;53.160;17.920;2023-08-31T18:50:58;100263.76;;;15.20;74.14
79366;BME280;68833;53.160;17.920;2023-08-31T18:53:50;100264.52;;;15.19;74.17
79366;BME280;68833;53.160;17.920;2023-08-31T18:56:41;100263.58;;;15.15;74.19
79366;BME280;68833;53.160;17.920;2023-08-31T18:59:37;100267.84;;;15.10;74.36
79366;BME280;68833;53.160;17.920;2023-08-31T19:02:42;100268.86;;;15.06;74.24
79366;BME280;68833;53.160;17.920;2023-08-31T19:05:30;100273.49;;;15.05;74.24
79366;BME280;68833;53.160;17.920;2023-08-31T19:08:15;100272.61;;;15.05;74.35
79366;BME280;68833;53.160;17.920;2023-08-31T19:11:28;100277.38;;;15.05;74.52
79366;BME280;68833;53.160;17.920;2023-08-31T19:14:09;100280.30;;;15.02;74.58
79366;BME280;68833;53.160;17.920;2023-08-31T19:17:19;100277.27;;;14.98;74.59
79366;BME280;68833;53.160;17.920;2023-08-31T19:20:27;100279.50;;;14.94;74.51
79366;BME280;68833;53.160;17.920;2023-08-31T19:23:50;100281.31;;;14.93;74.44
79366;BME280;68833;53.160;17.920;2023-08-31T19:26:19;100284.34;;;14.92;74.58
79366;BME280;68833;53.160;17.920;2023-08-31T19:29:52;100280.25;;;14.93;74.63
79366;BME280;68833;53.160;17.920;2023-08-31T19:32:46;100281.52;;;14.92;74.76
79366;BME280;68833;53.160;17.920;2023-08-31T19:35:36;100273.13;;;14.89;74.61
79366;BME280;68833;53.160;17.920;2023-08-31T19:38:24;100276.36;;;14.88;74.72
79366;BME280;68833;53.160;17.920;2023-08-31T19:41:11;100276.72;;;14.88;74.75
79366;BME280;68833;53.160;17.920;2023-08-31T19:44:41;100278.77;;;14.84;74.72
79366;BME280;68833;53.160;17.920;2023-08-31T19:47:56;100278.70;;;14.81;74.96
79366;BME280;68833;53.160;17.920;2023-08-31T19:51:02;100277.83;;;14.81;74.75
79366;BME280;68833;53.160;17.920;2023-08-31T19:54:04;100277.98;;;14.81;74.93
79366;BME280;68833;53.160;17.920;2023-08-31T19:56:41;100283.11;;;14.81;74.68
79366;BME280;68833;53.160;17.920;2023-08-31T19:59:11;100283.65;;;14.81;74.86
79366;BME280;68833;53.160;17.920;2023-08-31T20:02:02;100285.42;;;14.81;74.75
79366;BME280;68833;53.160;17.920;2023-08-31T20:05:05;100283.38;;;14.79;74.81
79366;BME280;68833;53.160;17.920;2023-08-31T20:07:41;100288.94;;;14.77;74.60
79366;BME280;68833;53.160;17.920;2023-08-31T20:10:30;100289.34;;;14.75;74.61
79366;BME280;68833;53.160;17.920;2023-08-31T20:13:06;100293.61;;;14.74;74.72
79366;BME280;68833;53.160;17.920;2023-08-31T20:16:05;100294.62;;;14.71;74.56
79366;BME280;68833;53.160;17.920;2023-08-31T20:18:57;100296.98;;;14.69;74.67
79366;BME280;68833;53.160;17.920;2023-08-31T20:22:00;100301.00;;;14.64;74.57
79366;BME280;68833;53.160;17.920;2023-08-31T20:25:00;100300.18;;;14.61;74.62
79366;BME280;68833;53.160;17.920;2023-08-31T20:27:39;100298.70;;;14.58;74.48
79366;BME280;68833;53.160;17.920;2023-08-31T20:30:11;100300.70;;;14.56;74.68
79366;BME280;68833;53.160;17.920;2023-08-31T20:33:25;100303.12;;;14.52;74.91
79366;BME280;68833;53.160;17.920;2023-08-31T20:36:07;100302.30;;;14.50;74.63
79366;BME280;68833;53.160;17.920;2023-08-31T20:38:40;100301.34;;;14.46;74.74
79366;BME280;68833;53.160;17.920;2023-08-31T20:41:15;100297.00;;;14.44;74.58
79366;BME280;68833;53.160;17.920;2023-08-31T20:44:05;100296.68;;;14.43;74.60
79366;BME280;68833;53.160;17.920;2023-08-31T20:46:48;100299.45;;;14.39;74.95
79366;BME280;68833;53.160;17.920;2023-08-31T20:49:17;100301.46;;;14.37;74.54
79366;BME280;68833;53.160;17.920;2023-08-31T20:51:45;100295.33;;;14.30;75.15
79366;BME280;68833;53.160;17.920;2023-08-31T20:54:20;100299.05;;;14.30;75.13
79366;BME280;68833;53.160;17.920;2023-08-31T20:56:48;100305.04;;;14.30;75.03
79366;BME280;68833;53.160;17.920;2023-08-31T20:59:15;100306.95;;;14.31;75.34
79366;BME280;68833;53.160;17.920;2023-08-31T21:01:45;100305.52;;;14.31;74.89
79366;BME280;68833;53.160;17.920;2023-08-31T21:04:18;100307.30;;;14.30;74.99
79366;BME280;68833;53.160;17.920;2023-08-31T21:06:49;100306.30;;;14.29;74.86
79366;BME280;68833;53.160;17.920;2023-08-31T21:09:43;100305.66;;;14.27;75.16
79366;BME280;68833;53.160;17.920;2023-08-31T21:12:26;100308.00;;;14.25;74.93
79366;BME280;68833;53.160;17.920;2023-08-31T21:14:55;100312.95;;;14.25;75.09
79366;BME280;68833;53.160;17.920;2023-08-31T21:17:23;100314.73;;;14.24;74.85
79366;BME280;68833;53.160;17.920;2023-08-31T21:19:55;100314.76;;;14.24;74.61
79366;BME280;68833;53.160;17.920;2023-08-31T21:22:28;100312.02;;;14.21;74.76
79366;BME280;68833;53.160;17.920;2023-08-31T21:24:56;100314.38;;;14.19;74.99
79366;BME280;68833;53.160;17.920;2023-08-31T21:27:44;100317.56;;;14.19;74.54
79366;BME280;68833;53.160;17.920;2023-08-31T21:30:25;100320.06;;;14.18;74.77
79366;BME280;68833;53.160;17.920;2023-08-31T21:32:54;100321.23;;;14.14;74.92
79366;BME280;68833;53.160;17.920;2023-08-31T21:36:02;100321.83;;;14.12;74.95
79366;BME280;68833;53.160;17.920;2023-08-31T21:38:50;100327.36;;;14.10;75.00
79366;BME280;68833;53.160;17.920;2023-08-31T21:41:19;100327.29;;;14.07;74.91
79366;BME280;68833;53.160;17.920;2023-08-31T21:43:46;100328.75;;;14.05;74.68
79366;BME280;68833;53.160;17.920;2023-08-31T21:46:35;100330.52;;;14.04;75.29
79366;BME280;68833;53.160;17.920;2023-08-31T21:49:15;100331.13;;;14.02;74.84
79366;BME280;68833;53.160;17.920;2023-08-31T21:51:45;100333.66;;;14.00;74.85
79366;BME280;68833;53.160;17.920;2023-08-31T21:54:21;100338.63;;;13.98;74.65
79366;BME280;68833;53.160;17.920;2023-08-31T21:56:56;100341.17;;;13.96;74.94
79366;BME280;68833;53.160;17.920;2023-08-31T21:59:48;100338.64;;;13.92;74.87
79366;BME280;68833;53.160;17.920;2023-08-31T22:02:22;100334.35;;;13.88;74.66
79366;BME280;68833;53.160;17.920;2023-08-31T22:08:58;100340.40;;;13.86;75.29
79366;BME280;68833;53.160;17.920;2023-08-31T22:12:08;100339.50;;;13.80;75.44
79366;BME280;68833;53.160;17.920;2023-08-31T22:15:40;100340.31;;;13.77;75.02
79366;BME280;68833;53.160;17.920;2023-08-31T22:18:49;100341.45;;;13.74;74.91
79366;BME280;68833;53.160;17.920;2023-08-31T22:21:49;100341.58;;;13.70;74.73
79366;BME280;68833;53.160;17.920;2023-08-31T22:25:14;100338.02;;;13.63;75.23
79366;BME280;68833;53.160;17.920;2023-08-31T22:28:54;100336.36;;;13.60;75.62
79366;BME280;68833;53.160;17.920;2023-08-31T22:32:22;100336.95;;;13.58;75.50
79366;BME280;68833;53.160;17.920;2023-08-31T22:35:02;100339.08;;;13.57;74.93
79366;BME280;68833;53.160;17.920;2023-08-31T22:39:15;100348.42;;;13.50;74.85
79366;BME280;68833;53.160;17.920;2023-08-31T22:43:43;100350.02;;;13.44;75.23
79366;BME280;68833;53.160;17.920;2023-08-31T22:52:09;100342.46;;;13.35;75.10
79366;BME280;68833;53.160;17.920;2023-08-31T22:56:19;100341.64;;;13.32;75.53
79366;BME280;68833;53.160;17.920;2023-08-31T22:59:32;100342.05;;;13.30;75.45
79366;BME280;68833;53.160;17.920;2023-08-31T23:03:47;100338.41;;;13.27;75.64
79366;BME280;68833;53.160;17.920;2023-08-31T23:08:00;100343.52;;;13.22;75.66
79366;BME280;68833;53.160;17.920;2023-08-31T23:12:26;100338.92;;;13.14;75.82
79366;BME280;68833;53.160;17.920;2023-08-31T23:20:48;100333.33;;;13.13;76.01
79366;BME280;68833;53.160;17.920;2023-08-31T23:42:03;100341.53;;;12.95;75.85
79366;BME280;68833;53.160;17.920;2023-08-31T23:46:29;100349.64;;;12.94;75.88
